Time;durP1;ratioP1;P1;durP2;ratioP2;P2;SDS_P1;SDS_P2;PMS_P1;PMS_P2;Temp;Humidity;BMP_temperature;BMP_pressure;BME280_temperature;BME280_humidity;BME280_pressure;Samples;Min_cycle;Max_cycle;Signal;HPM_P1;HPM_P2
2023/09/23 00:02:22;;;;;;;1999.90;999.90;;;12.30;99.90;;;;;;4984978;28;20159;-67
2023/09/23 00:04:47;;;;;;;1999.90;999.90;;;12.30;99.90;;;;;;4986069;28;20219;-67
2023/09/23 00:07:13;;;;;;;1999.90;999.90;;;12.20;99.90;;;;;;4986148;28;20049;-67
2023/09/23 00:09:39;;;;;;;1999.90;999.90;;;12.20;99.90;;;;;;5005706;28;20478;-67
2023/09/23 00:12:06;;;;;;;1999.90;999.90;;;12.20;99.90;;;;;;4977772;28;20043;-67
2023/09/23 00:14:32;;;;;;;1999.90;999.90;;;12.20;99.90;;;;;;4987608;28;20034;-67
2023/09/23 00:16:58;;;;;;;1999.90;999.90;;;12.10;99.90;;;;;;4982495;28;20047;-67
2023/09/23 00:19:24;;;;;;;1999.90;999.90;;;12.20;99.90;;;;;;4970605;28;20398;-67
2023/09/23 00:21:50;;;;;;;1999.90;999.90;;;12.20;99.90;;;;;;4970473;28;20050;-67
2023/09/23 00:24:16;;;;;;;1999.90;999.90;;;12.10;99.90;;;;;;4970560;28;20867;-67
2023/09/23 00:26:42;;;;;;;1999.90;999.90;;;12.10;99.90;;;;;;4968574;28;20065;-67
2023/09/23 00:29:08;;;;;;;1999.90;999.90;;;12.10;99.90;;;;;;4998855;28;20483;-67
2023/09/23 00:31:34;;;;;;;1999.90;999.90;;;12.00;99.90;;;;;;4970737;28;20035;-67
2023/09/23 00:33:59;;;;;;;1999.90;999.90;;;12.00;99.90;;;;;;4982075;28;20096;-67
2023/09/23 00:36:25;;;;;;;1999.90;999.90;;;12.00;99.90;;;;;;4976354;28;20398;-67
2023/09/23 00:38:50;;;;;;;1999.90;999.90;;;11.90;99.90;;;;;;4975392;28;20035;-68
2023/09/23 00:41:17;;;;;;;1999.90;999.90;;;11.90;99.90;;;;;;4969079;28;20085;-67
2023/09/23 00:43:43;;;;;;;1999.90;999.90;;;11.90;99.90;;;;;;4973012;28;20577;-67
2023/09/23 00:46:10;;;;;;;1999.90;999.90;;;11.90;99.90;;;;;;4969636;28;20046;-67
2023/09/23 00:48:43;;;;;;;1999.90;999.90;;;11.90;99.90;;;;;;4980643;28;20540;-67
2023/09/23 00:51:10;;;;;;;1999.90;999.90;;;11.90;99.90;;;;;;4970865;28;20066;-67
2023/09/23 00:53:39;;;;;;;1999.90;999.90;;;11.90;99.90;;;;;;4983623;28;20042;-67
2023/09/23 00:56:07;;;;;;;1999.90;999.90;;;11.80;99.90;;;;;;4984244;28;20046;-67
2023/09/23 00:58:36;;;;;;;1999.90;999.90;;;11.80;99.90;;;;;;4983595;28;20068;-67
2023/09/23 01:01:05;;;;;;;1999.90;999.90;;;11.80;99.90;;;;;;4980905;28;20136;-68
2023/09/23 01:03:31;;;;;;;1999.90;999.90;;;11.80;99.90;;;;;;4984317;28;20460;-67
2023/09/23 01:06:14;;;;;;;1999.90;999.90;;;11.80;99.90;;;;;;4977612;28;20045;-68
2023/09/23 01:08:42;;;;;;;1999.90;999.90;;;11.80;99.90;;;;;;4982301;28;20042;-67
2023/09/23 01:11:07;;;;;;;1999.90;999.90;;;11.80;99.90;;;;;;4979287;28;20046;-68
2023/09/23 01:13:34;;;;;;;1999.90;999.90;;;11.80;99.90;;;;;;4983208;28;20502;-68
2023/09/23 01:15:59;;;;;;;1999.90;999.90;;;11.80;99.90;;;;;;4974326;28;20042;-68
2023/09/23 01:18:28;;;;;;;1999.90;999.90;;;11.80;99.90;;;;;;4998047;28;20050;-67
2023/09/23 01:20:57;;;;;;;1999.90;999.90;;;11.80;99.90;;;;;;4968089;28;20058;-68
2023/09/23 01:23:22;;;;;;;1999.90;999.90;;;11.80;99.90;;;;;;4970334;28;20137;-68
2023/09/23 01:25:48;;;;;;;1999.90;999.90;;;11.80;99.90;;;;;;4973699;28;20129;-68
2023/09/23 01:28:13;;;;;;;1999.90;999.90;;;11.80;99.90;;;;;;4986596;28;20047;-68
2023/09/23 01:30:44;;;;;;;1999.90;999.90;;;11.80;99.90;;;;;;4969151;28;20034;-68
2023/09/23 01:33:10;;;;;;;1999.90;999.90;;;11.80;99.90;;;;;;4954209;28;20051;-67
2023/09/23 01:35:36;;;;;;;1999.90;999.90;;;11.80;99.90;;;;;;4973711;28;20104;-67
2023/09/23 01:38:03;;;;;;;1999.90;999.90;;;11.70;99.90;;;;;;4981067;28;20046;-67
2023/09/23 01:40:31;;;;;;;1999.90;999.90;;;11.80;99.90;;;;;;4965974;28;20057;-67
2023/09/23 01:43:04;;;;;;;1999.90;999.90;;;11.70;99.90;;;;;;4970726;28;20055;-67
2023/09/23 01:45:30;;;;;;;1999.90;999.90;;;11.70;99.90;;;;;;4978548;28;20047;-67
2023/09/23 01:47:58;;;;;;;1999.90;999.90;;;11.70;99.90;;;;;;4975036;28;20475;-67
2023/09/23 01:50:25;;;;;;;1999.90;999.90;;;11.70;99.90;;;;;;4974019;28;20603;-68
2023/09/23 01:52:51;;;;;;;1999.90;999.90;;;11.80;99.90;;;;;;4975035;28;20446;-67
2023/09/23 01:55:17;;;;;;;1999.90;999.90;;;11.70;99.90;;;;;;4977744;28;20128;-68
2023/09/23 01:57:43;;;;;;;1999.90;999.90;;;11.80;99.90;;;;;;4985222;28;20050;-68
2023/09/23 02:00:21;;;;;;;1999.90;999.90;;;11.70;99.90;;;;;;4980588;28;20085;-67
2023/09/23 02:02:48;;;;;;;1999.90;999.90;;;11.80;99.90;;;;;;4981624;28;20047;-68
2023/09/23 02:05:15;;;;;;;1999.90;999.90;;;11.80;99.90;;;;;;4975386;28;20034;-68
2023/09/23 02:07:41;;;;;;;1999.90;999.90;;;11.80;99.90;;;;;;4968867;28;20125;-68
2023/09/23 02:10:09;;;;;;;1999.90;999.90;;;11.80;99.90;;;;;;4969580;28;20145;-67
2023/09/23 02:12:35;;;;;;;1999.90;999.90;;;11.80;99.90;;;;;;4980723;28;20049;-67
2023/09/23 02:15:01;;;;;;;1999.90;999.90;;;11.80;99.90;;;;;;4975785;28;20091;-68
2023/09/23 02:17:26;;;;;;;1999.90;999.90;;;11.80;99.90;;;;;;4975112;28;20050;-67
2023/09/23 02:19:53;;;;;;;1999.90;999.90;;;11.70;99.90;;;;;;4989683;28;20049;-68
2023/09/23 02:22:19;;;;;;;1999.90;999.90;;;11.70;99.90;;;;;;4986367;28;20043;-67
2023/09/23 02:24:46;;;;;;;1999.90;999.90;;;11.60;99.90;;;;;;4977662;28;20059;-68
2023/09/23 02:27:12;;;;;;;1999.90;999.90;;;11.60;99.90;;;;;;4982535;28;20086;-67
2023/09/23 02:29:40;;;;;;;1999.90;999.90;;;11.60;99.90;;;;;;4984131;28;20073;-68
2023/09/23 02:32:06;;;;;;;1999.90;999.90;;;11.50;99.90;;;;;;4980913;28;20074;-67
2023/09/23 02:34:32;;;;;;;1999.90;999.90;;;11.50;99.90;;;;;;4972608;28;20054;-68
2023/09/23 02:36:58;;;;;;;1999.90;999.90;;;11.40;99.90;;;;;;4989254;28;20046;-68
2023/09/23 02:39:23;;;;;;;1999.90;999.90;;;11.50;99.90;;;;;;4983055;28;20039;-67
2023/09/23 02:41:50;;;;;;;1999.90;999.90;;;11.40;99.90;;;;;;5013281;28;20565;-68
2023/09/23 02:44:24;;;;;;;1999.90;999.90;;;11.50;99.90;;;;;;4987963;28;20054;-67
2023/09/23 02:46:53;;;;;;;1999.90;999.90;;;11.50;99.90;;;;;;4979427;28;20783;-68
2023/09/23 02:49:19;;;;;;;1999.90;999.90;;;11.40;99.90;;;;;;5014484;28;20730;-67
2023/09/23 02:51:45;;;;;;;1999.90;999.90;;;11.40;99.90;;;;;;4987132;28;20050;-68
2023/09/23 02:54:18;;;;;;;1999.90;999.90;;;11.40;99.90;;;;;;5013798;28;20043;-68
2023/09/23 02:56:47;;;;;;;1999.90;999.90;;;11.40;99.90;;;;;;4977129;28;20055;-68
2023/09/23 02:59:15;;;;;;;1999.90;999.90;;;11.30;99.90;;;;;;4969199;28;20566;-68
2023/09/23 03:01:51;;;;;;;1999.90;999.90;;;11.30;99.90;;;;;;4998600;28;20034;-68
2023/09/23 03:04:19;;;;;;;1999.90;999.90;;;11.30;99.90;;;;;;4994914;28;20089;-67
2023/09/23 03:06:50;;;;;;;1999.90;999.90;;;11.20;99.90;;;;;;4976484;28;20066;-68
2023/09/23 03:09:20;;;;;;;1999.90;999.90;;;11.20;99.90;;;;;;4977333;28;20081;-67
2023/09/23 03:11:55;;;;;;;1999.90;999.90;;;11.20;99.90;;;;;;4967873;28;20129;-67
2023/09/23 03:14:40;;;;;;;1999.90;999.90;;;11.20;99.90;;;;;;4974853;28;20085;-68
2023/09/23 03:17:07;;;;;;;1999.90;999.90;;;11.20;99.90;;;;;;4978780;28;20130;-67
2023/09/23 03:19:33;;;;;;;1999.90;999.90;;;11.10;99.90;;;;;;4974180;28;20049;-68
2023/09/23 03:22:00;;;;;;;1999.90;999.90;;;11.10;99.90;;;;;;4981510;28;20079;-68
2023/09/23 03:24:28;;;;;;;1999.90;999.90;;;11.10;99.90;;;;;;4986582;28;20042;-68
2023/09/23 03:26:59;;;;;;;1999.90;999.90;;;11.10;99.90;;;;;;4974732;28;20125;-67
2023/09/23 03:29:32;;;;;;;1999.90;999.90;;;11.00;99.90;;;;;;4988404;28;20428;-67
2023/09/23 03:31:59;;;;;;;1999.90;999.90;;;11.00;99.90;;;;;;4984570;28;20041;-67
2023/09/23 03:34:26;;;;;;;1999.90;999.90;;;10.90;99.90;;;;;;4986176;28;20051;-67
2023/09/23 03:36:56;;;;;;;1999.90;999.90;;;10.80;99.90;;;;;;4982549;28;20043;-67
2023/09/23 03:39:22;;;;;;;1999.90;999.90;;;10.80;99.90;;;;;;4978152;28;20058;-68
2023/09/23 03:41:48;;;;;;;1999.90;999.90;;;10.80;99.90;;;;;;4985961;28;20069;-68
2023/09/23 03:44:14;;;;;;;1999.90;999.90;;;10.70;99.90;;;;;;4982326;28;20049;-68
2023/09/23 03:46:42;;;;;;;1999.90;999.90;;;10.70;99.90;;;;;;4960309;28;20054;-68
2023/09/23 03:49:08;;;;;;;1999.90;999.90;;;10.70;99.90;;;;;;5016089;28;20111;-67
2023/09/23 03:51:34;;;;;;;1999.90;999.90;;;10.70;99.90;;;;;;4974418;28;20049;-67
2023/09/23 03:54:00;;;;;;;1999.90;999.90;;;10.70;99.90;;;;;;4976547;28;20039;-68
2023/09/23 03:56:27;;;;;;;1999.90;999.90;;;10.60;99.90;;;;;;4972643;28;20053;-67
2023/09/23 03:58:55;;;;;;;1999.90;999.90;;;10.60;99.90;;;;;;4967950;28;20499;-67
2023/09/23 04:01:24;;;;;;;1999.90;999.90;;;10.70;99.90;;;;;;4979643;28;20054;-67
2023/09/23 04:03:52;;;;;;;1999.90;999.90;;;10.70;99.90;;;;;;4973547;28;20409;-67
2023/09/23 04:06:19;;;;;;;1999.90;999.90;;;10.60;99.90;;;;;;4975144;28;20491;-68
2023/09/23 04:08:45;;;;;;;1999.90;999.90;;;10.60;99.90;;;;;;5014979;28;20045;-68
2023/09/23 04:11:15;;;;;;;1999.90;999.90;;;10.60;99.90;;;;;;4975575;28;20039;-68
2023/09/23 04:13:47;;;;;;;1999.90;999.90;;;10.50;99.90;;;;;;4966559;28;20074;-67
2023/09/23 04:16:12;;;;;;;1999.90;999.90;;;10.50;99.90;;;;;;4973917;28;20081;-68
2023/09/23 04:18:39;;;;;;;1999.90;999.90;;;10.60;99.90;;;;;;5014002;28;20054;-67
2023/09/23 04:21:05;;;;;;;1999.90;999.90;;;10.50;99.90;;;;;;4979597;28;20406;-67
2023/09/23 04:23:31;;;;;;;1999.90;999.90;;;10.50;99.90;;;;;;4984915;28;20053;-68
2023/09/23 04:25:57;;;;;;;1999.90;999.90;;;10.50;99.90;;;;;;4976075;28;20042;-68
2023/09/23 04:28:23;;;;;;;1999.90;999.90;;;10.50;99.90;;;;;;4977579;28;20401;-68
2023/09/23 04:30:55;;;;;;;1999.90;999.90;;;10.50;99.90;;;;;;5005229;28;20054;-67
2023/09/23 04:33:23;;;;;;;1999.90;999.90;;;10.40;99.90;;;;;;4976197;28;20501;-68
2023/09/23 04:35:49;;;;;;;1999.90;999.90;;;10.40;99.90;;;;;;4984719;28;20492;-68
2023/09/23 04:38:15;;;;;;;1999.90;999.90;;;10.50;99.90;;;;;;5002341;28;20054;-68
2023/09/23 04:40:42;;;;;;;1999.90;999.90;;;10.50;99.90;;;;;;4982537;28;20495;-67
2023/09/23 04:43:09;;;;;;;1999.90;999.90;;;10.60;99.90;;;;;;4972848;28;20134;-67
2023/09/23 04:45:35;;;;;;;1999.90;999.90;;;10.60;99.90;;;;;;4978637;28;20134;-67
2023/09/23 04:48:01;;;;;;;1999.90;999.90;;;10.60;99.90;;;;;;4994696;28;20054;-67
2023/09/23 04:50:29;;;;;;;1999.90;999.90;;;10.60;99.90;;;;;;5042957;28;20036;-68
2023/09/23 04:52:55;;;;;;;1999.90;999.90;;;10.60;99.90;;;;;;4988666;28;20050;-67
2023/09/23 04:55:22;;;;;;;1999.90;999.90;;;10.60;99.90;;;;;;4970402;28;20043;-68
2023/09/23 04:57:47;;;;;;;1999.90;999.90;;;10.60;99.90;;;;;;4971438;28;20061;-67
2023/09/23 05:00:20;;;;;;;1999.90;999.90;;;10.60;99.90;;;;;;4970570;28;20347;-67
2023/09/23 05:02:49;;;;;;;1999.90;999.90;;;10.50;99.90;;;;;;4977838;28;20038;-67
2023/09/23 05:05:15;;;;;;;1999.90;999.90;;;10.60;99.90;;;;;;4968034;28;20188;-67
2023/09/23 05:07:41;;;;;;;1999.90;999.90;;;10.50;99.90;;;;;;4998729;28;20039;-68
2023/09/23 05:10:07;;;;;;;1999.90;999.90;;;10.50;99.90;;;;;;4974931;28;20066;-67
2023/09/23 05:12:33;;;;;;;1999.90;999.90;;;10.50;99.90;;;;;;4984164;28;20393;-67
2023/09/23 05:15:00;;;;;;;1999.90;999.90;;;10.50;99.90;;;;;;4978253;28;20039;-68
2023/09/23 05:17:27;;;;;;;1999.90;999.90;;;10.50;99.90;;;;;;4977366;28;20046;-67
2023/09/23 05:19:53;;;;;;;1999.90;999.90;;;10.50;99.90;;;;;;4978159;28;20164;-67
2023/09/23 05:22:19;;;;;;;1999.90;999.90;;;10.40;99.90;;;;;;4984068;28;20046;-68
2023/09/23 05:24:48;;;;;;;1999.90;999.90;;;10.40;99.90;;;;;;4985847;28;20401;-68
2023/09/23 05:27:14;;;;;;;1999.90;999.90;;;10.40;99.90;;;;;;4986222;28;20411;-67
2023/09/23 05:29:41;;;;;;;1999.90;999.90;;;10.30;99.90;;;;;;4963050;28;20042;-67
2023/09/23 05:32:09;;;;;;;1999.90;999.90;;;10.30;99.90;;;;;;4983139;28;20050;-68
2023/09/23 05:34:35;;;;;;;1999.90;999.90;;;10.30;99.90;;;;;;4985555;28;20061;-68
2023/09/23 05:37:01;;;;;;;1999.90;999.90;;;10.30;99.90;;;;;;4978941;28;20478;-68
2023/09/23 05:39:27;;;;;;;1999.90;999.90;;;10.30;99.90;;;;;;5009500;28;20047;-68
2023/09/23 05:41:53;;;;;;;1999.90;999.90;;;10.30;99.90;;;;;;5002989;28;20054;-67
2023/09/23 05:44:19;;;;;;;1999.90;999.90;;;10.30;99.90;;;;;;4978988;28;20171;-68
2023/09/23 05:46:46;;;;;;;1999.90;999.90;;;10.30;99.90;;;;;;4978393;28;20058;-68
2023/09/23 05:49:12;;;;;;;1999.90;999.90;;;10.30;99.90;;;;;;4970989;28;20054;-67
2023/09/23 05:51:38;;;;;;;1999.90;999.90;;;10.30;99.90;;;;;;4973162;28;20034;-68
2023/09/23 05:54:05;;;;;;;1999.90;999.90;;;10.30;99.90;;;;;;4974290;28;20046;-68
2023/09/23 05:56:30;;;;;;;1999.90;999.90;;;10.30;99.90;;;;;;4977501;28;20074;-67
2023/09/23 05:58:56;;;;;;;1999.90;999.90;;;10.30;99.90;;;;;;4974036;28;20199;-68
2023/09/23 06:01:21;;;;;;;1999.90;999.90;;;10.30;99.90;;;;;;4979155;28;20553;-68
2023/09/23 06:03:49;;;;;;;1999.90;999.90;;;10.30;99.90;;;;;;4976845;28;20042;-67
2023/09/23 06:06:15;;;;;;;1999.90;999.90;;;10.40;99.90;;;;;;4974609;28;20051;-67
2023/09/23 06:08:40;;;;;;;1999.90;999.90;;;10.40;99.90;;;;;;4969373;28;20401;-67
2023/09/23 06:11:07;;;;;;;1999.90;999.90;;;10.50;99.90;;;;;;5001936;28;20054;-67
2023/09/23 06:13:34;;;;;;;1999.90;999.90;;;10.50;99.90;;;;;;4976886;28;20391;-68
2023/09/23 06:16:04;;;;;;;1999.90;999.90;;;10.50;99.90;;;;;;5005643;28;20474;-68
2023/09/23 06:18:30;;;;;;;1999.90;999.90;;;10.60;99.90;;;;;;4987307;28;20060;-68
2023/09/23 06:21:03;;;;;;;1999.90;999.90;;;10.70;99.90;;;;;;4981505;28;20410;-68
2023/09/23 06:23:29;;;;;;;1999.90;999.90;;;10.90;99.90;;;;;;4976788;28;20048;-67
2023/09/23 06:25:56;;;;;;;1999.90;999.90;;;11.00;99.90;;;;;;4978274;28;20626;-68
2023/09/23 06:28:24;;;;;;;1999.90;999.90;;;11.20;99.90;;;;;;4970808;28;20449;-68
2023/09/23 06:30:50;;;;;;;1999.90;999.90;;;11.30;99.90;;;;;;4977406;28;20035;-68
2023/09/23 06:33:16;;;;;;;1999.90;999.90;;;11.50;99.90;;;;;;4984950;28;20042;-68
2023/09/23 06:35:42;;;;;;;1999.90;999.90;;;11.50;99.90;;;;;;4974942;28;20414;-67
2023/09/23 06:38:07;;;;;;;1999.90;999.90;;;11.60;99.90;;;;;;4977273;28;20070;-68
2023/09/23 06:40:33;;;;;;;1999.90;999.90;;;11.70;99.90;;;;;;4972606;28;20066;-67
2023/09/23 06:42:59;;;;;;;1999.90;999.90;;;11.70;99.90;;;;;;4968331;28;20078;-68
2023/09/23 06:45:24;;;;;;;1999.90;999.90;;;11.80;99.90;;;;;;4975266;28;20043;-68
2023/09/23 06:47:50;;;;;;;1999.90;999.90;;;11.80;99.90;;;;;;4958821;28;20038;-68
2023/09/23 06:50:16;;;;;;;1999.90;999.90;;;11.90;99.90;;;;;;4975825;28;20382;-68
2023/09/23 06:52:42;;;;;;;1999.90;999.90;;;11.90;99.90;;;;;;4975426;28;20074;-68
2023/09/23 06:55:08;;;;;;;1999.90;999.90;;;12.00;99.90;;;;;;4972232;28;20121;-68
2023/09/23 06:57:36;;;;;;;1999.90;999.90;;;12.00;99.90;;;;;;4957154;28;20047;-68
2023/09/23 07:00:05;;;;;;;1999.90;999.90;;;12.10;99.90;;;;;;4972722;28;20115;-68
2023/09/23 07:02:30;;;;;;;1999.90;999.90;;;12.10;99.90;;;;;;4981407;28;20395;-68
2023/09/23 07:04:56;;;;;;;1999.90;999.90;;;12.20;99.90;;;;;;4980961;28;20175;-68
2023/09/23 07:07:21;;;;;;;1999.90;999.90;;;12.20;99.90;;;;;;4990131;28;20071;-68
2023/09/23 07:09:47;;;;;;;1999.90;999.90;;;12.30;99.90;;;;;;4979960;28;20044;-68
2023/09/23 07:12:13;;;;;;;1999.90;999.90;;;12.20;99.90;;;;;;4972043;28;20049;-68
2023/09/23 07:14:40;;;;;;;1999.90;999.90;;;12.40;99.90;;;;;;4980296;28;20535;-68
2023/09/23 07:17:06;;;;;;;1999.90;999.90;;;12.70;99.90;;;;;;4988225;28;20409;-68
2023/09/23 07:19:32;;;;;;;1999.90;999.90;;;12.80;99.90;;;;;;4976036;28;20042;-68
2023/09/23 07:21:58;;;;;;;1999.90;999.90;;;12.90;99.90;;;;;;5015648;28;20102;-68
2023/09/23 07:24:27;;;;;;;1999.90;999.90;;;12.90;99.90;;;;;;4981696;28;20070;-68
2023/09/23 07:26:57;;;;;;;1999.90;999.90;;;13.00;99.90;;;;;;4975591;28;20031;-68
2023/09/23 07:29:24;;;;;;;1999.90;999.90;;;13.10;99.90;;;;;;4981122;28;20371;-68
2023/09/23 07:31:50;;;;;;;1999.90;999.90;;;13.20;99.90;;;;;;4974493;28;20058;-68
2023/09/23 07:34:16;;;;;;;1999.90;999.90;;;13.40;99.90;;;;;;4969782;28;20135;-68
2023/09/23 07:36:42;;;;;;;1999.90;999.90;;;13.70;99.90;;;;;;4969731;28;20066;-68
2023/09/23 07:39:10;;;;;;;1999.90;999.90;;;13.90;99.90;;;;;;4972564;28;20054;-68
2023/09/23 07:41:36;;;;;;;1999.90;999.90;;;14.00;99.90;;;;;;4972563;28;20058;-68
2023/09/23 07:44:02;;;;;;;1999.90;999.90;;;14.00;99.90;;;;;;4974050;28;20134;-68
2023/09/23 07:46:28;;;;;;;1999.90;999.90;;;14.00;99.90;;;;;;4973172;28;20177;-68
2023/09/23 07:48:54;;;;;;;1999.90;999.90;;;14.20;99.90;;;;;;5002199;28;20129;-68
2023/09/23 07:51:19;;;;;;;1999.90;999.90;;;14.40;99.90;;;;;;4973643;28;20047;-68
2023/09/23 07:53:45;;;;;;;1999.90;999.90;;;14.60;99.90;;;;;;4975439;28;20108;-69
2023/09/23 07:56:10;;;;;;;1999.90;999.90;;;14.70;99.90;;;;;;4976438;28;20053;-68
2023/09/23 07:58:36;;;;;;;1999.90;999.90;;;14.80;99.90;;;;;;4972618;28;20487;-68
2023/09/23 08:01:02;;;;;;;1999.90;999.90;;;14.70;99.90;;;;;;4969611;28;20042;-68
2023/09/23 08:03:28;;;;;;;1999.90;999.90;;;14.70;99.90;;;;;;4973446;28;20164;-68
2023/09/23 08:05:54;;;;;;;1999.90;999.90;;;14.60;99.90;;;;;;4978013;28;20518;-68
2023/09/23 08:08:19;;;;;;;1999.90;999.90;;;14.60;99.90;;;;;;4975234;28;20122;-68
2023/09/23 08:10:45;;;;;;;1999.90;999.90;;;14.60;99.90;;;;;;4976919;28;20034;-68
2023/09/23 08:13:11;;;;;;;1999.90;999.90;;;14.60;99.90;;;;;;4974527;28;20408;-68
2023/09/23 08:15:37;;;;;;;1999.90;999.90;;;14.60;99.90;;;;;;4954099;28;20046;-68
2023/09/23 08:18:03;;;;;;;1999.90;999.90;;;14.50;99.90;;;;;;4976912;28;20443;-68
2023/09/23 08:20:29;;;;;;;1999.90;999.90;;;14.60;99.90;;;;;;4975535;28;20394;-68
2023/09/23 08:22:55;;;;;;;1999.90;999.90;;;14.60;99.90;;;;;;4982549;28;20070;-68
2023/09/23 08:25:20;;;;;;;1999.90;999.90;;;14.60;99.90;;;;;;4980118;28;20108;-68
2023/09/23 08:27:46;;;;;;;1999.90;999.90;;;14.60;99.90;;;;;;4979937;28;20034;-68
2023/09/23 08:30:13;;;;;;;1999.90;999.90;;;14.70;99.90;;;;;;4970444;28;20406;-67
2023/09/23 08:32:39;;;;;;;1999.90;999.90;;;14.90;99.90;;;;;;4972759;28;20042;-68
2023/09/23 08:35:07;;;;;;;1999.90;999.90;;;15.00;99.90;;;;;;4980700;28;20042;-68
2023/09/23 08:37:33;;;;;;;1999.90;999.90;;;15.10;99.90;;;;;;4984913;28;20042;-68
2023/09/23 08:39:59;;;;;;;1999.90;999.90;;;15.20;99.90;;;;;;4987827;28;20042;-68
2023/09/23 08:42:25;;;;;;;1999.90;999.90;;;15.50;99.90;;;;;;4985835;28;20054;-68
2023/09/23 08:44:51;;;;;;;1999.90;999.90;;;15.60;99.90;;;;;;4979663;28;20042;-68
2023/09/23 08:47:20;;;;;;;1999.90;999.90;;;16.00;99.90;;;;;;4974286;28;20042;-68
2023/09/23 08:49:49;;;;;;;1999.90;999.90;;;16.60;99.90;;;;;;4975427;28;20045;-68
2023/09/23 08:52:18;;;;;;;1999.90;999.90;;;16.90;99.90;;;;;;4977512;28;20524;-68
2023/09/23 08:54:47;;;;;;;1999.90;999.90;;;17.10;99.90;;;;;;4974435;28;20039;-68
2023/09/23 08:57:12;;;;;;;1999.90;999.90;;;17.30;99.90;;;;;;4984995;28;20042;-68
2023/09/23 08:59:39;;;;;;;1999.90;999.90;;;17.40;99.90;;;;;;5018339;28;20042;-68
2023/09/23 09:02:05;;;;;;;1999.90;999.90;;;17.50;99.90;;;;;;4976928;28;20038;-68
2023/09/23 09:04:31;;;;;;;1999.90;999.90;;;17.50;99.90;;;;;;4976549;28;20034;-68
2023/09/23 09:06:57;;;;;;;1999.90;999.90;;;17.80;99.90;;;;;;4995596;28;20046;-67
2023/09/23 09:09:23;;;;;;;1999.90;999.90;;;17.90;99.90;;;;;;4983523;28;20050;-68
2023/09/23 09:11:53;;;;;;;1999.90;999.90;;;18.10;99.90;;;;;;4984586;28;20517;-67
2023/09/23 09:14:21;;;;;;;1999.90;999.90;;;18.40;99.90;;;;;;4982829;28;20050;-67
2023/09/23 09:16:47;;;;;;;1999.90;999.90;;;18.70;99.90;;;;;;4981388;28;20056;-68
2023/09/23 09:19:13;;;;;;;1999.90;999.90;;;18.90;99.90;;;;;;4976015;28;20038;-68
2023/09/23 09:21:39;;;;;;;1999.90;999.90;;;19.10;99.90;;;;;;4977010;28;20038;-68
2023/09/23 09:24:05;;;;;;;1999.90;999.90;;;19.20;99.90;;;;;;4984682;28;20129;-68
2023/09/23 09:26:31;;;;;;;1999.90;999.90;;;19.00;99.90;;;;;;4976225;28;20157;-68
2023/09/23 09:28:57;;;;;;;1999.90;999.90;;;18.60;99.90;;;;;;4980074;28;20050;-68
2023/09/23 09:31:31;;;;;;;1999.90;999.90;;;18.30;99.90;;;;;;4980624;28;20032;-67
2023/09/23 09:33:58;;;;;;;1999.90;999.90;;;18.00;99.90;;;;;;4988205;28;20039;-70
2023/09/23 09:36:24;;;;;;;1999.90;999.90;;;17.70;99.90;;;;;;5017709;27;20525;-68
2023/09/23 09:38:53;;;;;;;1999.90;999.90;;;17.40;99.90;;;;;;4988537;28;20044;-68
2023/09/23 09:41:31;;;;;;;1999.90;999.90;;;17.50;99.90;;;;;;4986949;28;20149;-67
2023/09/23 09:44:00;;;;;;;1999.90;999.90;;;17.80;99.90;;;;;;4982689;28;20646;-68
2023/09/23 09:46:30;;;;;;;1999.90;999.90;;;17.80;99.90;;;;;;4978850;28;20541;-70
2023/09/23 09:48:57;;;;;;;1999.90;999.90;;;17.90;99.90;;;;;;4985438;28;20484;-67
2023/09/23 09:51:23;;;;;;;1999.90;999.90;;;18.10;99.90;;;;;;4975316;28;20039;-67
2023/09/23 09:53:50;;;;;;;1999.90;999.90;;;18.30;99.90;;;;;;4977806;28;20042;-68
2023/09/23 09:56:17;;;;;;;1999.90;999.90;;;18.50;99.90;;;;;;4968177;28;20065;-68
2023/09/23 09:58:43;;;;;;;1999.90;999.90;;;18.60;99.90;;;;;;4975801;28;20496;-67
2023/09/23 10:01:12;;;;;;;1999.90;999.90;;;18.70;99.90;;;;;;4978009;28;20093;-68
2023/09/23 10:03:42;;;;;;;1999.90;999.90;;;18.80;99.90;;;;;;4967583;28;20077;-68
2023/09/23 10:06:08;;;;;;;1999.90;999.90;;;18.70;99.90;;;;;;4969806;28;20094;-68
2023/09/23 10:08:38;;;;;;;1999.90;999.90;;;18.50;99.90;;;;;;4971446;28;20078;-67
2023/09/23 10:11:08;;;;;;;1999.90;999.90;;;18.20;99.90;;;;;;4970973;28;20045;-67
2023/09/23 10:13:34;;;;;;;1999.90;999.90;;;17.80;99.90;;;;;;4966672;28;20070;-67
2023/09/23 10:16:04;;;;;;;1999.90;999.90;;;17.50;99.90;;;;;;4977101;28;20384;-67
2023/09/23 10:18:35;;;;;;;1999.90;999.90;;;17.20;99.90;;;;;;4981610;28;20509;-68
2023/09/23 10:21:02;;;;;;;1999.90;999.90;;;16.90;99.90;;;;;;4973989;28;20046;-67
2023/09/23 10:23:35;;;;;;;1999.90;999.90;;;16.70;99.90;;;;;;5005928;28;20452;-67
2023/09/23 10:26:20;;;;;;;1999.90;999.90;;;16.50;99.90;;;;;;4976635;28;20046;-67
2023/09/23 10:29:00;;;;;;;1999.90;999.90;;;16.30;99.90;;;;;;4972203;28;20042;-67
2023/09/23 10:31:27;;;;;;;1999.90;999.90;;;16.10;99.90;;;;;;4973090;28;20046;-67
2023/09/23 10:33:54;;;;;;;1999.90;999.90;;;16.20;99.90;;;;;;4978023;28;20034;-67
2023/09/23 10:36:20;;;;;;;1999.90;999.90;;;16.60;99.90;;;;;;4967667;28;20047;-68
2023/09/23 10:38:46;;;;;;;1999.90;999.90;;;17.20;99.90;;;;;;4975005;28;20376;-68
2023/09/23 10:41:12;;;;;;;1999.90;999.90;;;17.80;99.90;;;;;;4994459;28;20050;-68
2023/09/23 10:43:38;;;;;;;1999.90;999.90;;;18.00;99.90;;;;;;4995577;28;20088;-67
2023/09/23 10:46:05;;;;;;;1999.90;999.90;;;17.90;99.90;;;;;;4974992;28;20046;-67
2023/09/23 10:48:31;;;;;;;1999.90;999.90;;;17.70;99.90;;;;;;4973932;28;20480;-68
2023/09/23 10:51:01;;;;;;;1999.90;999.90;;;17.70;99.90;;;;;;4968791;28;20043;-68
2023/09/23 10:53:29;;;;;;;1999.90;999.90;;;17.80;99.90;;;;;;4970963;28;20046;-67
2023/09/23 10:55:57;;;;;;;1999.90;999.90;;;17.70;99.90;;;;;;4987762;28;20049;-68
2023/09/23 10:58:25;;;;;;;1999.90;999.90;;;17.70;99.90;;;;;;4976985;28;20047;-68
2023/09/23 11:00:52;;;;;;;1999.90;999.90;;;17.60;99.90;;;;;;4983427;28;20038;-67
2023/09/23 11:03:19;;;;;;;1999.90;999.90;;;17.40;99.90;;;;;;4998049;28;20098;-68
2023/09/23 11:05:47;;;;;;;1999.90;999.90;;;17.30;99.90;;;;;;4976432;28;20414;-68
2023/09/23 11:08:14;;;;;;;1999.90;999.90;;;17.20;99.90;;;;;;4987560;28;20034;-67
2023/09/23 11:10:44;;;;;;;1999.90;999.90;;;17.10;99.90;;;;;;4992857;28;20068;-68
2023/09/23 11:13:12;;;;;;;1999.90;999.90;;;17.10;99.90;;;;;;5005744;28;20038;-68
2023/09/23 11:15:45;;;;;;;1999.90;999.90;;;17.20;99.90;;;;;;4978523;28;20057;-68
2023/09/23 11:18:14;;;;;;;1999.90;999.90;;;17.20;99.90;;;;;;4981679;28;20042;-67
2023/09/23 11:20:41;;;;;;;1999.90;999.90;;;17.20;99.90;;;;;;5002709;28;20050;-67
2023/09/23 11:23:07;;;;;;;1999.90;999.90;;;17.10;99.90;;;;;;4972031;28;20046;-68
2023/09/23 11:25:46;;;;;;;1999.90;999.90;;;17.10;99.90;;;;;;4978812;28;20397;-67
2023/09/23 11:28:19;;;;;;;1999.90;999.90;;;17.10;99.90;;;;;;4999749;28;20057;-67
2023/09/23 11:30:46;;;;;;;1999.90;999.90;;;17.10;99.90;;;;;;4973070;28;20054;-68
2023/09/23 11:33:14;;;;;;;1999.90;999.90;;;17.00;99.90;;;;;;4972779;28;20039;-67
2023/09/23 11:35:41;;;;;;;1999.90;999.90;;;17.00;99.90;;;;;;4981593;28;20046;-67
2023/09/23 11:38:07;;;;;;;1999.90;999.90;;;16.80;99.90;;;;;;5023172;28;20085;-67
2023/09/23 11:40:34;;;;;;;1999.90;999.90;;;16.60;99.90;;;;;;5005998;28;20493;-67
2023/09/23 11:43:00;;;;;;;1999.90;999.90;;;16.40;99.90;;;;;;4977730;28;20494;-67
2023/09/23 11:45:25;;;;;;;1999.90;999.90;;;16.20;99.90;;;;;;4997601;28;20096;-67
2023/09/23 11:47:51;;;;;;;1999.90;999.90;;;16.10;99.90;;;;;;4993190;28;20034;-67
2023/09/23 11:50:17;;;;;;;1999.90;999.90;;;16.00;99.90;;;;;;4990611;28;20107;-67
2023/09/23 11:52:43;;;;;;;1999.90;999.90;;;16.00;99.90;;;;;;4990778;28;20077;-67
2023/09/23 11:55:12;;;;;;;1999.90;999.90;;;16.00;99.90;;;;;;4978566;28;20054;-67
2023/09/23 11:57:39;;;;;;;1999.90;999.90;;;16.00;99.90;;;;;;4983258;28;20046;-67
2023/09/23 12:00:09;;;;;;;1999.90;999.90;;;16.00;99.90;;;;;;5014821;28;20042;-67